Time;durP1;ratioP1;P1;durP2;ratioP2;P2;SDS_P1;SDS_P2;PMS_P1;PMS_P2;Temp;Humidity;BMP_temperature;BMP_pressure;BME280_temperature;BME280_humidity;BME280_pressure;Samples;Min_cycle;Max_cycle;Signal;HPM_P1;HPM_P2
2021/01/25 00:02:03;;;;;;;6.30;4.80;;;-5.20;63.80;;;;;;5174015;28;20230;-76
2021/01/25 00:04:35;;;;;;;5.88;4.60;;;-5.10;63.70;;;;;;5198418;28;20045;-74
2021/01/25 00:07:06;;;;;;;5.43;4.68;;;-5.00;63.70;;;;;;5192801;28;20265;-75
2021/01/25 00:09:38;;;;;;;5.45;4.30;;;-5.00;63.50;;;;;;5197493;28;20048;-74
2021/01/25 00:12:09;;;;;;;5.80;4.43;;;-4.90;64.20;;;;;;5169953;28;20056;-73
2021/01/25 00:14:41;;;;;;;5.78;4.63;;;-4.90;63.90;;;;;;5195088;28;20071;-76
2021/01/25 00:17:12;;;;;;;6.05;4.60;;;-4.90;63.50;;;;;;5193177;28;20041;-75
2021/01/25 00:19:44;;;;;;;5.40;4.35;;;-4.90;64.40;;;;;;5197263;28;20642;-73
2021/01/25 00:22:15;;;;;;;5.35;4.20;;;-4.90;63.80;;;;;;5193192;28;20155;-74
2021/01/25 00:24:47;;;;;;;5.00;3.70;;;-4.90;63.80;;;;;;5178866;28;20052;-75
2021/01/25 00:27:18;;;;;;;6.72;4.40;;;-4.90;64.10;;;;;;5194737;28;20049;-77
2021/01/25 00:29:50;;;;;;;5.10;3.95;;;-4.90;63.60;;;;;;5196185;28;20099;-77
2021/01/25 00:32:21;;;;;;;4.15;3.50;;;-4.80;63.20;;;;;;5194269;28;20065;-76
2021/01/25 00:34:53;;;;;;;4.70;4.03;;;-4.80;63.50;;;;;;5196808;28;20026;-74
2021/01/25 00:37:24;;;;;;;5.15;4.07;;;-4.90;64.20;;;;;;5194915;28;20045;-73
2021/01/25 00:39:56;;;;;;;5.75;3.97;;;-4.90;62.70;;;;;;5195464;28;20053;-74
2021/01/25 00:42:27;;;;;;;4.60;4.00;;;-4.90;62.20;;;;;;5182043;28;20126;-73
2021/01/25 00:45:00;;;;;;;5.78;4.07;;;-4.90;62.20;;;;;;5184748;28;20737;-73
2021/01/25 00:47:31;;;;;;;5.65;4.20;;;-4.90;62.50;;;;;;5196904;28;20382;-75
2021/01/25 00:50:05;;;;;;;5.38;4.30;;;-4.90;62.50;;;;;;5193010;28;20049;-76
2021/01/25 00:52:37;;;;;;;5.55;4.05;;;-4.90;62.70;;;;;;5195988;28;20480;-74
2021/01/25 00:55:11;;;;;;;5.45;4.22;;;-4.90;62.40;;;;;;5191638;28;20053;-73
2021/01/25 00:57:44;;;;;;;4.63;4.10;;;-4.90;62.90;;;;;;5194944;28;20107;-73
2021/01/25 01:00:16;;;;;;;4.25;3.40;;;-4.90;63.50;;;;;;5191296;28;20045;-74
2021/01/25 01:02:48;;;;;;;5.57;4.00;;;-4.90;63.20;;;;;;5195678;28;20100;-75
2021/01/25 01:05:20;;;;;;;5.03;3.92;;;-4.90;63.20;;;;;;5194434;28;20052;-76
2021/01/25 01:07:51;;;;;;;5.50;3.90;;;-4.80;63.40;;;;;;5195668;28;20641;-73
2021/01/25 01:10:23;;;;;;;6.55;4.38;;;-4.80;63.50;;;;;;5193452;28;20048;-75
2021/01/25 01:12:55;;;;;;;4.63;3.90;;;-4.80;62.90;;;;;;5195116;28;20041;-73
2021/01/25 01:15:26;;;;;;;4.63;4.07;;;-4.80;63.00;;;;;;5194049;28;20447;-74
2021/01/25 01:17:58;;;;;;;5.65;4.65;;;-4.80;62.90;;;;;;5195563;28;20049;-73
2021/01/25 01:20:30;;;;;;;6.20;4.90;;;-4.80;62.40;;;;;;5195395;28;20060;-71
2021/01/25 01:23:01;;;;;;;5.45;4.30;;;-4.80;62.30;;;;;;5193740;28;20046;-75
2021/01/25 01:25:33;;;;;;;5.82;4.40;;;-4.80;62.40;;;;;;5191976;28;20040;-75
2021/01/25 01:28:04;;;;;;;5.13;4.10;;;-4.80;62.30;;;;;;5186171;28;20440;-74
2021/01/25 01:30:36;;;;;;;6.47;4.80;;;-4.80;62.50;;;;;;5190421;28;20125;-74
2021/01/25 01:33:07;;;;;;;5.22;3.90;;;-4.80;62.70;;;;;;5195670;28;20096;-74
2021/01/25 01:35:39;;;;;;;5.55;4.45;;;-5.20;62.40;;;;;;5192818;28;20053;-74
2021/01/25 01:38:10;;;;;;;6.13;4.00;;;-5.30;62.50;;;;;;5195460;28;20511;-76
2021/01/25 01:40:42;;;;;;;4.65;3.53;;;-5.40;63.00;;;;;;5193732;28;20115;-73
2021/01/25 01:43:13;;;;;;;5.88;4.43;;;-5.40;63.50;;;;;;5193049;28;20041;-73
2021/01/25 01:45:44;;;;;;;5.93;3.80;;;-5.30;63.40;;;;;;5193501;28;20045;-73
2021/01/25 01:48:16;;;;;;;5.63;4.03;;;-5.40;63.20;;;;;;5193820;28;20037;-74
2021/01/25 01:50:48;;;;;;;4.32;3.50;;;-5.50;64.00;;;;;;5193501;28;20048;-75
2021/01/25 01:53:20;;;;;;;5.55;4.10;;;-5.50;64.10;;;;;;5194745;28;20126;-74
2021/01/25 01:55:52;;;;;;;4.88;3.70;;;-5.40;64.90;;;;;;5192392;28;20868;-74
2021/01/25 01:58:27;;;;;;;4.88;3.85;;;-5.30;64.40;;;;;;5197067;28;20519;-74
2021/01/25 02:00:58;;;;;;;4.63;3.53;;;-5.30;64.50;;;;;;5194914;28;20761;-74
2021/01/25 02:03:30;;;;;;;5.88;3.83;;;-5.20;64.90;;;;;;5193850;28;20697;-74
2021/01/25 02:06:04;;;;;;;5.13;4.22;;;-5.20;64.00;;;;;;5196289;28;20107;-76
2021/01/25 02:08:38;;;;;;;5.10;3.97;;;-5.20;64.30;;;;;;5193290;28;20055;-77
2021/01/25 02:11:10;;;;;;;4.65;3.65;;;-5.10;64.00;;;;;;5194613;28;20050;-74
2021/01/25 02:13:42;;;;;;;4.60;3.88;;;-5.10;64.10;;;;;;5194948;28;20045;-74
2021/01/25 02:16:14;;;;;;;5.03;4.00;;;-5.10;64.20;;;;;;5191175;28;20103;-75
2021/01/25 02:18:45;;;;;;;4.97;4.07;;;-5.00;63.70;;;;;;5192426;28;20092;-75
2021/01/25 02:21:18;;;;;;;4.35;3.60;;;-5.00;63.70;;;;;;5185457;28;20136;-76
2021/01/25 02:24:15;;;;;;;4.40;3.42;;;-5.00;63.60;;;;;;5184485;28;20073;-76
2021/01/25 02:27:21;;;;;;;4.03;3.40;;;-5.10;64.60;;;;;;5185029;28;20045;-77
2021/01/25 02:29:53;;;;;;;3.97;3.50;;;-5.10;64.00;;;;;;5191873;28;20045;-74
2021/01/25 02:32:26;;;;;;;3.97;3.58;;;-5.10;63.50;;;;;;5190025;28;20076;-74
2021/01/25 02:35:02;;;;;;;3.72;3.33;;;-5.20;63.50;;;;;;5193947;28;20044;-74
2021/01/25 02:37:34;;;;;;;3.58;3.20;;;-5.20;62.60;;;;;;5192202;28;20095;-76
2021/01/25 02:40:09;;;;;;;3.90;3.47;;;-5.30;63.30;;;;;;5189138;28;20057;-74
2021/01/25 02:42:42;;;;;;;4.05;3.65;;;-5.20;62.50;;;;;;5192887;28;20542;-74
2021/01/25 02:45:15;;;;;;;3.80;3.38;;;-5.10;63.00;;;;;;5192538;28;20451;-74
2021/01/25 02:47:47;;;;;;;4.07;3.65;;;-5.10;63.80;;;;;;5195130;28;20033;-78
2021/01/25 02:50:19;;;;;;;4.00;3.50;;;-5.10;62.60;;;;;;5194161;28;20716;-76
2021/01/25 02:52:51;;;;;;;4.03;3.47;;;-5.10;63.90;;;;;;5192525;28;20049;-74
2021/01/25 02:55:22;;;;;;;4.57;4.03;;;-5.20;64.30;;;;;;5194828;28;20052;-74
2021/01/25 02:57:55;;;;;;;3.90;3.45;;;-5.20;63.80;;;;;;5192126;28;20049;-74
2021/01/25 03:00:27;;;;;;;3.90;3.40;;;-5.10;62.40;;;;;;5194667;28;20046;-74
2021/01/25 03:03:00;;;;;;;4.15;3.70;;;-5.00;62.90;;;;;;5184263;28;20038;-75
2021/01/25 03:05:32;;;;;;;4.82;3.65;;;-5.00;63.80;;;;;;5194646;28;20048;-73
2021/01/25 03:08:04;;;;;;;4.00;3.60;;;-4.90;64.10;;;;;;5197797;28;20045;-73
2021/01/25 03:10:36;;;;;;;3.95;3.47;;;-4.90;63.30;;;;;;5198226;28;20475;-73
2021/01/25 03:13:07;;;;;;;4.95;4.00;;;-4.90;64.30;;;;;;5183681;28;20423;-75
2021/01/25 03:15:40;;;;;;;4.22;3.58;;;-4.80;64.50;;;;;;5196508;28;20126;-73
2021/01/25 03:18:12;;;;;;;3.78;3.33;;;-4.80;65.40;;;;;;5197466;28;20444;-74
2021/01/25 03:20:43;;;;;;;4.40;3.92;;;-4.70;65.00;;;;;;5197992;28;20053;-73
2021/01/25 03:23:15;;;;;;;4.13;3.28;;;-4.70;64.50;;;;;;5197524;28;21705;-72
2021/01/25 03:25:47;;;;;;;3.65;3.25;;;-4.60;64.50;;;;;;5197290;28;20076;-74
2021/01/25 03:28:18;;;;;;;3.83;3.28;;;-4.60;64.50;;;;;;5195853;28;20049;-73
2021/01/25 03:30:50;;;;;;;5.10;3.42;;;-4.60;64.00;;;;;;5184573;28;20049;-74
2021/01/25 03:33:21;;;;;;;4.18;3.50;;;-4.60;64.30;;;;;;5191162;28;20056;-73
2021/01/25 03:35:52;;;;;;;4.13;3.60;;;-4.60;65.20;;;;;;5197931;28;20068;-72
2021/01/25 03:38:24;;;;;;;4.57;3.92;;;-4.60;64.60;;;;;;5195975;28;20041;-72
2021/01/25 03:40:55;;;;;;;4.70;3.83;;;-4.50;66.00;;;;;;5196204;28;20050;-72
2021/01/25 03:43:27;;;;;;;4.60;3.42;;;-4.50;66.00;;;;;;5196930;28;20563;-72
2021/01/25 03:45:58;;;;;;;4.63;3.50;;;-4.50;64.10;;;;;;5195625;28;20042;-73
2021/01/25 03:48:30;;;;;;;3.90;3.50;;;-4.50;63.70;;;;;;5186440;28;20056;-72
2021/01/25 03:51:02;;;;;;;4.05;3.65;;;-4.50;63.40;;;;;;5194012;28;20203;-74
2021/01/25 03:53:33;;;;;;;3.80;3.22;;;-4.50;61.80;;;;;;5197081;28;20104;-73
2021/01/25 03:56:05;;;;;;;3.70;3.40;;;-4.40;62.40;;;;;;5193714;28;20108;-72
2021/01/25 03:58:36;;;;;;;3.97;3.63;;;-4.30;60.70;;;;;;5198117;28;20648;-71
2021/01/25 04:01:08;;;;;;;4.00;3.50;;;-4.20;64.60;;;;;;5190648;28;20200;-72
2021/01/25 04:03:39;;;;;;;4.18;3.70;;;-4.10;56.30;;;;;;5195674;28;20065;-74
2021/01/25 04:06:11;;;;;;;4.22;3.83;;;-4.10;58.90;;;;;;5195318;28;20045;-74
2021/01/25 04:08:42;;;;;;;4.10;3.70;;;-4.00;62.50;;;;;;5195358;28;20459;-71
2021/01/25 04:11:15;;;;;;;4.20;3.80;;;-4.00;64.50;;;;;;5193873;28;20041;-72
2021/01/25 04:13:46;;;;;;;4.35;3.95;;;-3.90;67.50;;;;;;5196846;28;20060;-73
2021/01/25 04:16:18;;;;;;;4.90;4.50;;;-3.90;70.70;;;;;;5194997;28;20195;-73
2021/01/25 04:18:49;;;;;;;5.10;4.60;;;-4.00;74.10;;;;;;5197872;28;20041;-74
2021/01/25 04:21:21;;;;;;;5.20;4.70;;;-4.10;77.50;;;;;;5195492;28;20085;-74
2021/01/25 04:23:52;;;;;;;5.50;5.00;;;-4.20;80.00;;;;;;5195452;28;20037;-72
2021/01/25 04:26:24;;;;;;;5.50;5.00;;;-4.20;80.90;;;;;;5196034;28;20476;-72
2021/01/25 04:28:55;;;;;;;5.20;4.70;;;-4.30;80.60;;;;;;5193184;28;20041;-73
2021/01/25 04:31:27;;;;;;;5.78;5.18;;;-4.30;80.30;;;;;;5193917;28;20041;-75
2021/01/25 04:33:58;;;;;;;5.20;4.70;;;-4.40;80.40;;;;;;5195950;28;20761;-73
2021/01/25 04:36:30;;;;;;;5.35;4.85;;;-4.50;79.90;;;;;;5192065;28;20488;-72
2021/01/25 04:39:03;;;;;;;5.15;4.65;;;-4.50;79.70;;;;;;5196011;28;20045;-75
2021/01/25 04:41:34;;;;;;;4.95;4.45;;;-4.60;79.50;;;;;;5196685;28;20080;-76
2021/01/25 04:44:06;;;;;;;4.85;4.38;;;-4.70;79.70;;;;;;5203599;28;20091;-74
2021/01/25 04:46:38;;;;;;;4.88;4.38;;;-4.80;80.10;;;;;;5195232;28;20413;-72
2021/01/25 04:49:14;;;;;;;4.40;4.00;;;-4.80;79.90;;;;;;5194410;28;20580;-74
2021/01/25 04:51:46;;;;;;;5.10;4.60;;;-4.80;80.50;;;;;;5196187;28;20077;-75
2021/01/25 04:54:18;;;;;;;4.57;4.18;;;-4.70;81.20;;;;;;5196609;28;20071;-74
2021/01/25 04:56:51;;;;;;;5.00;4.50;;;-4.60;81.00;;;;;;5196620;28;20076;-74
2021/01/25 04:59:22;;;;;;;5.13;4.63;;;-4.50;82.00;;;;;;5194704;28;20045;-72
2021/01/25 05:01:55;;;;;;;4.78;4.38;;;-4.40;81.30;;;;;;5200042;28;20048;-72
2021/01/25 05:04:27;;;;;;;4.40;4.00;;;-4.40;81.20;;;;;;5196964;28;20141;-74
2021/01/25 05:06:58;;;;;;;5.10;4.60;;;-4.30;81.30;;;;;;5195403;28;20448;-74
2021/01/25 05:09:30;;;;;;;6.43;4.50;;;-4.20;80.80;;;;;;5197197;28;20080;-73
2021/01/25 05:12:03;;;;;;;6.35;5.18;;;-4.10;80.50;;;;;;5190454;28;20046;-72
2021/01/25 05:14:39;;;;;;;5.53;5.03;;;-4.10;80.60;;;;;;5197055;28;20049;-74
2021/01/25 05:17:12;;;;;;;5.47;4.97;;;-4.00;80.50;;;;;;5196017;28;20057;-73
2021/01/25 05:19:45;;;;;;;5.65;5.05;;;-3.90;80.50;;;;;;5196430;28;20103;-73
2021/01/25 05:22:20;;;;;;;5.63;5.13;;;-3.90;80.40;;;;;;5195368;28;20060;-74
2021/01/25 05:24:55;;;;;;;5.65;5.15;;;-3.80;80.40;;;;;;5196131;28;20556;-72
2021/01/25 05:27:31;;;;;;;5.25;4.75;;;-3.70;80.40;;;;;;5195982;28;20037;-72
2021/01/25 05:30:21;;;;;;;5.90;5.30;;;-3.70;80.20;;;;;;5193092;28;20041;-75
2021/01/25 05:32:58;;;;;;;5.80;5.30;;;-3.60;80.30;;;;;;5195911;28;20111;-72
2021/01/25 05:35:32;;;;;;;5.53;5.03;;;-3.60;80.30;;;;;;5194965;28;20610;-74
2021/01/25 05:38:09;;;;;;;5.80;5.30;;;-3.50;80.40;;;;;;5195653;28;20072;-73
2021/01/25 05:40:40;;;;;;;6.07;5.55;;;-3.50;80.30;;;;;;5194605;28;20516;-71
2021/01/25 05:43:14;;;;;;;6.15;5.57;;;-3.40;80.10;;;;;;5194273;28;20046;-72
2021/01/25 05:45:45;;;;;;;6.55;5.95;;;-3.40;79.40;;;;;;5195084;28;20033;-73
2021/01/25 05:48:17;;;;;;;5.88;5.30;;;-3.30;78.70;;;;;;5195126;28;20048;-74
2021/01/25 05:50:48;;;;;;;5.97;5.38;;;-3.30;77.90;;;;;;5189786;28;20041;-73
2021/01/25 05:53:20;;;;;;;7.47;6.22;;;-3.40;78.20;;;;;;5194196;28;20972;-72
2021/01/25 05:55:55;;;;;;;6.57;5.68;;;-3.40;78.10;;;;;;5194426;28;20069;-70
2021/01/25 05:58:26;;;;;;;7.68;6.30;;;-3.60;78.50;;;;;;5196025;28;20099;-71
2021/01/25 06:00:59;;;;;;;5.85;5.30;;;-3.50;78.70;;;;;;5190859;28;20463;-73
2021/01/25 06:03:39;;;;;;;5.57;5.00;;;-3.50;78.10;;;;;;5206119;28;20046;-72
2021/01/25 06:06:17;;;;;;;6.10;5.50;;;-3.50;78.40;;;;;;5191594;28;20058;-71
2021/01/25 06:08:51;;;;;;;5.57;5.00;;;-3.50;78.10;;;;;;5193432;28;20520;-73
2021/01/25 06:11:28;;;;;;;6.22;5.43;;;-3.50;77.50;;;;;;5195890;28;20304;-72
2021/01/25 06:14:23;;;;;;;7.00;5.95;;;-3.40;77.00;;;;;;5199809;28;20057;-72
2021/01/25 06:16:55;;;;;;;5.90;5.15;;;-3.40;77.00;;;;;;5195221;28;20041;-72
2021/01/25 06:19:29;;;;;;;6.30;5.53;;;-3.40;77.90;;;;;;5195364;28;20714;-72
2021/01/25 06:22:01;;;;;;;6.60;6.00;;;-3.40;77.50;;;;;;5191838;28;20042;-75
2021/01/25 06:24:34;;;;;;;6.20;5.60;;;-3.50;78.30;;;;;;5183841;28;20030;-75
2021/01/25 06:27:05;;;;;;;6.50;5.90;;;-3.50;78.30;;;;;;5195721;28;20049;-72
2021/01/25 06:29:38;;;;;;;6.25;5.65;;;-3.50;78.00;;;;;;5194325;28;20092;-74
2021/01/25 06:32:10;;;;;;;6.25;5.60;;;-3.50;78.70;;;;;;5193014;28;20046;-72
2021/01/25 06:34:42;;;;;;;6.78;6.18;;;-3.40;78.70;;;;;;5193736;28;20112;-73
2021/01/25 06:37:16;;;;;;;6.80;6.10;;;-3.50;79.80;;;;;;5176439;28;20049;-71
2021/01/25 06:39:49;;;;;;;6.68;6.07;;;-3.60;79.60;;;;;;5194571;28;20163;-77
2021/01/25 06:42:20;;;;;;;6.53;5.93;;;-3.60;79.60;;;;;;5195410;28;20115;-75
2021/01/25 06:44:53;;;;;;;6.70;6.00;;;-3.60;79.90;;;;;;5197463;28;20558;-74
2021/01/25 06:47:30;;;;;;;6.57;5.90;;;-3.60;80.30;;;;;;5197478;28;20049;-74
2021/01/25 06:50:03;;;;;;;6.13;5.53;;;-3.60;80.60;;;;;;5189714;28;20925;-76
2021/01/25 06:52:36;;;;;;;6.40;5.75;;;-3.60;80.10;;;;;;5197796;28;20144;-74
2021/01/25 06:55:10;;;;;;;6.85;6.15;;;-3.50;80.00;;;;;;5196157;28;20111;-75
2021/01/25 06:57:45;;;;;;;6.93;6.22;;;-3.50;79.80;;;;;;5199286;28;20054;-74
2021/01/25 07:00:19;;;;;;;6.93;6.22;;;-3.50;80.40;;;;;;5195987;28;20053;-76
2021/01/25 07:02:58;;;;;;;7.47;6.80;;;-3.40;80.30;;;;;;5195193;28;20527;-76
2021/01/25 07:05:35;;;;;;;8.57;7.87;;;-3.40;80.40;;;;;;5179414;28;20041;-74
2021/01/25 07:08:24;;;;;;;7.88;7.18;;;-3.50;81.60;;;;;;5198201;28;20045;-76
2021/01/25 07:11:03;;;;;;;8.05;7.25;;;-3.50;81.70;;;;;;5196499;28;20038;-73
2021/01/25 07:13:36;;;;;;;8.30;7.60;;;-3.50;81.90;;;;;;5196061;28;20096;-75
2021/01/25 07:16:08;;;;;;;8.63;7.82;;;-3.40;82.40;;;;;;5197825;28;20342;-74
2021/01/25 07:18:42;;;;;;;8.15;7.45;;;-3.40;83.40;;;;;;5197881;28;20049;-74
2021/01/25 07:21:14;;;;;;;8.18;7.47;;;-3.40;83.10;;;;;;5195452;28;20092;-74
2021/01/25 07:23:48;;;;;;;8.48;7.78;;;-3.30;83.60;;;;;;5196541;28;20045;-74
2021/01/25 07:26:19;;;;;;;8.55;7.85;;;-3.30;83.20;;;;;;5197921;28;20048;-75
2021/01/25 07:28:51;;;;;;;10.38;8.95;;;-3.20;83.00;;;;;;5196855;28;20037;-74
2021/01/25 07:31:22;;;;;;;9.80;8.90;;;-3.10;82.80;;;;;;5197094;28;20042;-74
2021/01/25 07:33:54;;;;;;;9.63;8.82;;;-3.10;82.70;;;;;;5194683;28;20432;-76
2021/01/25 07:36:25;;;;;;;9.65;8.75;;;-3.10;82.70;;;;;;5192324;28;20049;-75
2021/01/25 07:38:57;;;;;;;9.75;8.75;;;-3.00;82.60;;;;;;5189776;28;20068;-73
2021/01/25 07:41:28;;;;;;;10.85;9.25;;;-3.00;82.90;;;;;;5198253;28;20046;-74
2021/01/25 07:44:01;;;;;;;11.10;9.70;;;-3.00;83.00;;;;;;5194853;28;20623;-75
2021/01/25 07:46:33;;;;;;;10.52;9.43;;;-3.00;83.10;;;;;;5194087;28;20509;-75
2021/01/25 07:49:04;;;;;;;9.88;8.95;;;-3.00;83.40;;;;;;5196692;28;20034;-76
2021/01/25 07:51:37;;;;;;;10.25;9.25;;;-2.90;83.40;;;;;;5197144;28;20045;-74
2021/01/25 07:54:14;;;;;;;9.68;8.77;;;-2.80;83.00;;;;;;5196704;28;20041;-76
2021/01/25 07:56:46;;;;;;;9.68;8.77;;;-2.70;82.50;;;;;;5195360;28;20809;-77
2021/01/25 07:59:17;;;;;;;9.75;8.85;;;-2.60;83.00;;;;;;5196029;28;20050;-75
2021/01/25 08:02:06;;;;;;;9.65;8.85;;;-2.60;83.10;;;;;;5180044;28;20103;-74
2021/01/25 08:04:43;;;;;;;10.27;9.30;;;-2.60;83.10;;;;;;5195552;28;20096;-74
2021/01/25 08:07:16;;;;;;;9.20;8.40;;;-2.50;83.40;;;;;;5197404;28;20072;-77
2021/01/25 08:09:48;;;;;;;11.02;9.93;;;-2.50;83.90;;;;;;5198418;28;20037;-77
2021/01/25 08:12:22;;;;;;;9.63;8.82;;;-2.40;83.30;;;;;;5197043;28;20970;-75
2021/01/25 08:15:01;;;;;;;9.60;8.80;;;-2.30;83.20;;;;;;5198259;28;20109;-74
2021/01/25 08:17:38;;;;;;;10.05;9.25;;;-2.20;82.50;;;;;;5194205;28;20111;-75
2021/01/25 08:20:15;;;;;;;9.23;8.43;;;-2.10;82.60;;;;;;5195269;28;20045;-74
2021/01/25 08:22:53;;;;;;;9.73;8.93;;;-1.90;82.10;;;;;;5197313;28;20035;-75
2021/01/25 08:25:28;;;;;;;10.20;9.30;;;-1.80;81.80;;;;;;5195866;28;20045;-75
2021/01/25 08:28:14;;;;;;;10.65;9.75;;;-1.70;81.50;;;;;;5196503;28;20124;-77
2021/01/25 08:30:47;;;;;;;10.50;9.60;;;-1.70;81.70;;;;;;5197401;28;20048;-76
2021/01/25 08:33:32;;;;;;;9.77;8.88;;;-1.70;82.00;;;;;;5196648;28;20114;-77
2021/01/25 08:36:34;;;;;;;13.32;11.88;;;-1.60;81.90;;;;;;5196074;28;20045;-75
2021/01/25 08:39:15;;;;;;;13.80;12.30;;;-1.40;81.50;;;;;;5197237;28;20045;-76
2021/01/25 08:41:49;;;;;;;;;;;-1.20;81.00;;;;;;5197500;28;20053;-76
2021/01/25 08:44:23;;;;;;;11.75;10.65;;;-1.10;80.70;;;;;;5196951;28;20031;-75
2021/01/25 08:47:06;;;;;;;10.65;9.65;;;-0.90;80.10;;;;;;5195356;28;20049;-76
2021/01/25 08:49:40;;;;;;;10.07;9.20;;;-0.70;80.20;;;;;;5195079;28;20045;-77
2021/01/25 08:52:32;;;;;;;11.43;10.43;;;-0.50;79.60;;;;;;5195528;28;20046;-76
2021/01/25 08:55:38;;;;;;;10.35;9.45;;;-0.40;78.40;;;;;;5196712;28;20045;-77
2021/01/25 08:58:17;;;;;;;10.00;9.10;;;-0.30;77.60;;;;;;5193001;28;20052;-74
2021/01/25 09:00:49;;;;;;;9.30;8.50;;;-0.20;77.70;;;;;;5195756;28;20044;-75
2021/01/25 09:03:21;;;;;;;9.43;8.63;;;0.00;77.50;;;;;;5171775;28;20045;-76
2021/01/25 09:05:55;;;;;;;9.93;9.13;;;0.10;78.10;;;;;;5185739;28;20062;-76
2021/01/25 09:08:31;;;;;;;9.88;9.07;;;0.20;76.20;;;;;;5192945;28;20073;-77
2021/01/25 09:11:04;;;;;;;9.18;8.30;;;0.30;76.30;;;;;;5189927;28;20041;-77
2021/01/25 09:13:35;;;;;;;9.80;8.90;;;0.30;75.70;;;;;;5196305;28;20045;-75
2021/01/25 09:16:06;;;;;;;9.88;8.98;;;0.40;76.50;;;;;;5194847;28;20470;-76
2021/01/25 09:18:38;;;;;;;11.23;10.13;;;0.50;76.00;;;;;;5194452;28;20045;-77
2021/01/25 09:21:09;;;;;;;12.20;11.00;;;0.70;76.70;;;;;;5194668;28;20111;-76
2021/01/25 09:23:41;;;;;;;13.63;12.25;;;0.80;75.60;;;;;;5195835;28;20071;-76
2021/01/25 09:26:12;;;;;;;15.50;12.30;;;1.00;75.80;;;;;;5194758;28;20049;-75
2021/01/25 09:28:44;;;;;;;13.65;11.30;;;1.10;75.40;;;;;;5169563;28;20038;-76
2021/01/25 09:31:18;;;;;;;13.95;12.00;;;1.30;75.00;;;;;;5193654;28;20041;-75
2021/01/25 09:33:49;;;;;;;10.57;9.57;;;1.40;73.20;;;;;;5195592;28;20541;-77
2021/01/25 09:36:21;;;;;;;8.35;7.65;;;1.30;72.40;;;;;;5195584;28;20076;-77
2021/01/25 09:39:10;;;;;;;9.27;8.43;;;1.10;69.00;;;;;;5195545;28;20054;-77
2021/01/25 09:41:46;;;;;;;9.10;8.40;;;0.90;70.10;;;;;;5193997;28;20064;-75
2021/01/25 09:44:18;;;;;;;8.65;7.95;;;0.90;71.30;;;;;;5193443;28;21117;-77
2021/01/25 09:46:51;;;;;;;9.38;8.57;;;0.90;70.00;;;;;;5195559;28;20069;-76
2021/01/25 09:49:23;;;;;;;8.60;7.72;;;0.90;69.90;;;;;;5193094;28;20103;-76
2021/01/25 09:51:55;;;;;;;8.90;8.20;;;1.00;69.20;;;;;;5188945;28;20095;-75
2021/01/25 09:54:26;;;;;;;10.50;9.50;;;1.10;70.60;;;;;;5195902;28;20796;-76
2021/01/25 09:56:57;;;;;;;9.02;8.32;;;1.30;70.00;;;;;;5194849;28;20049;-76
2021/01/25 09:59:29;;;;;;;9.25;8.50;;;1.40;69.20;;;;;;5162986;28;20084;-77
2021/01/25 10:02:00;;;;;;;9.38;8.48;;;1.50;67.10;;;;;;5190205;28;20064;-76
2021/01/25 10:04:32;;;;;;;8.95;8.25;;;1.60;67.70;;;;;;5191703;28;20152;-76
2021/01/25 10:07:03;;;;;;;9.10;8.30;;;1.60;68.80;;;;;;5194662;28;20056;-77
2021/01/25 10:09:35;;;;;;;9.45;8.75;;;1.60;68.30;;;;;;5195718;28;20096;-76
2021/01/25 10:12:06;;;;;;;9.05;8.35;;;1.30;68.40;;;;;;5194649;28;20041;-77
2021/01/25 10:14:38;;;;;;;9.35;8.55;;;1.10;70.60;;;;;;5193846;28;20041;-75
2021/01/25 10:17:10;;;;;;;8.88;8.18;;;1.00;71.20;;;;;;5182322;28;20085;-77
2021/01/25 10:19:42;;;;;;;8.70;8.00;;;1.10;71.20;;;;;;5191169;28;20043;-78
2021/01/25 10:22:14;;;;;;;9.07;8.38;;;1.00;71.90;;;;;;5193667;28;20072;-76
2021/01/25 10:24:45;;;;;;;9.57;8.88;;;1.20;72.40;;;;;;5194596;28;20045;-74
2021/01/25 10:27:17;;;;;;;8.73;8.02;;;1.40;72.40;;;;;;5174048;28;20061;-75
2021/01/25 10:29:49;;;;;;;9.68;8.88;;;1.70;70.60;;;;;;5195994;28;20045;-75
2021/01/25 10:32:21;;;;;;;8.68;7.97;;;1.70;71.00;;;;;;5195186;28;20057;-74
2021/01/25 10:34:53;;;;;;;9.15;8.45;;;2.00;70.00;;;;;;5193234;28;20046;-74
2021/01/25 10:37:25;;;;;;;9.13;8.43;;;1.90;67.20;;;;;;5194392;28;20092;-74
2021/01/25 10:39:57;;;;;;;9.07;8.38;;;2.00;69.10;;;;;;5177788;28;20052;-73
2021/01/25 10:42:28;;;;;;;10.40;8.88;;;2.20;70.10;;;;;;5195006;28;20111;-74
2021/01/25 10:45:00;;;;;;;9.73;8.93;;;2.40;68.10;;;;;;5193949;28;20128;-74
2021/01/25 10:47:32;;;;;;;9.63;8.82;;;2.50;68.60;;;;;;5189953;28;20529;-75
2021/01/25 10:50:05;;;;;;;10.20;9.30;;;2.60;68.30;;;;;;5194157;28;20059;-76
2021/01/25 10:52:40;;;;;;;14.27;11.40;;;2.70;68.10;;;;;;5192048;28;20045;-74
2021/01/25 10:55:12;;;;;;;10.57;9.68;;;2.60;64.40;;;;;;5172067;28;20057;-73
2021/01/25 10:57:44;;;;;;;9.40;8.60;;;2.50;65.90;;;;;;5194031;28;20128;-73
2021/01/25 11:00:19;;;;;;;9.73;8.82;;;2.60;65.30;;;;;;5188649;28;20072;-74
2021/01/25 11:02:51;;;;;;;11.88;10.63;;;2.70;66.10;;;;;;5192268;28;20046;-75
2021/01/25 11:05:26;;;;;;;11.85;10.75;;;2.80;66.90;;;;;;5189903;28;20099;-73
2021/01/25 11:07:57;;;;;;;10.02;9.02;;;3.00;66.40;;;;;;5172278;28;20052;-75
2021/01/25 11:10:29;;;;;;;9.48;8.68;;;3.00;64.30;;;;;;5194140;28;20074;-74
2021/01/25 11:13:00;;;;;;;9.40;8.60;;;3.00;64.70;;;;;;5193432;28;20052;-75
2021/01/25 11:15:32;;;;;;;10.82;9.95;;;3.10;63.90;;;;;;5192469;28;20046;-74
2021/01/25 11:18:04;;;;;;;9.63;8.82;;;3.20;57.40;;;;;;5191171;28;20053;-75
2021/01/25 11:20:35;;;;;;;9.25;8.55;;;3.10;57.60;;;;;;5193911;28;20413;-75
2021/01/25 11:23:07;;;;;;;8.80;8.10;;;3.10;56.70;;;;;;5193436;28;20107;-74
2021/01/25 11:25:38;;;;;;;9.20;8.40;;;3.00;58.20;;;;;;5184264;28;20099;-74
2021/01/25 11:28:10;;;;;;;8.98;8.27;;;3.00;60.90;;;;;;5204874;28;20529;-74
2021/01/25 11:30:41;;;;;;;8.90;8.20;;;3.00;59.30;;;;;;5198569;28;20046;-75
2021/01/25 11:33:13;;;;;;;9.13;8.43;;;2.90;58.50;;;;;;5188631;28;20580;-74
2021/01/25 11:35:45;;;;;;;9.52;8.50;;;3.00;60.70;;;;;;5198265;28;20049;-75
2021/01/25 11:38:16;;;;;;;9.35;8.65;;;3.00;58.40;;;;;;5198466;28;20047;-76
2021/01/25 11:40:48;;;;;;;8.20;7.60;;;2.90;60.60;;;;;;5194708;28;20984;-75
2021/01/25 11:43:19;;;;;;;8.75;8.05;;;2.90;60.00;;;;;;5196888;28;20433;-75
2021/01/25 11:45:51;;;;;;;8.73;8.02;;;3.00;59.50;;;;;;5180284;28;20083;-76
2021/01/25 11:48:22;;;;;;;8.93;8.23;;;3.30;58.60;;;;;;5188469;28;20520;-76
2021/01/25 11:50:53;;;;;;;9.80;8.90;;;3.50;59.90;;;;;;5198093;28;20034;-73
2021/01/25 11:53:25;;;;;;;9.70;9.00;;;3.80;60.20;;;;;;5188974;28;20103;-74
2021/01/25 11:55:58;;;;;;;8.88;8.18;;;3.80;58.20;;;;;;5196640;28;20049;-74
2021/01/25 11:58:29;;;;;;;9.27;8.50;;;3.80;58.20;;;;;;5186647;28;20077;-74
2021/01/25 12:01:00;;;;;;;8.95;8.05;;;4.00;59.80;;;;;;5196263;28;20580;-74
2021/01/25 12:03:32;;;;;;;9.15;8.45;;;4.20;57.50;;;;;;5194726;28;20460;-75
2021/01/25 12:06:04;;;;;;;8.70;8.00;;;4.60;61.70;;;;;;5190400;28;20046;-77
2021/01/25 12:08:35;;;;;;;8.80;8.10;;;4.70;58.10;;;;;;5185406;28;20901;-74
2021/01/25 12:11:08;;;;;;;8.80;8.10;;;4.80;58.70;;;;;;5191285;28;20103;-74
2021/01/25 12:13:40;;;;;;;8.70;8.00;;;4.90;58.20;;;;;;5192050;28;20037;-73
2021/01/25 12:16:15;;;;;;;8.38;7.68;;;4.80;56.40;;;;;;5174895;28;20053;-74
2021/01/25 12:18:47;;;;;;;9.23;8.52;;;4.80;57.40;;;;;;5164519;28;20045;-74
2021/01/25 12:21:18;;;;;;;8.10;7.43;;;4.70;57.40;;;;;;5196708;28;20069;-74
2021/01/25 12:23:50;;;;;;;8.65;7.95;;;4.30;56.40;;;;;;5194649;28;20060;-73
2021/01/25 12:26:21;;;;;;;8.43;7.72;;;4.10;58.00;;;;;;5195120;28;20049;-74
2021/01/25 12:28:52;;;;;;;8.50;7.70;;;4.00;54.10;;;;;;5195982;28;20563;-75
2021/01/25 12:31:27;;;;;;;8.77;8.07;;;3.90;56.00;;;;;;5194872;28;20045;-74
2021/01/25 12:34:00;;;;;;;8.75;8.05;;;3.80;55.50;;;;;;5193673;28;20045;-72
2021/01/25 12:36:32;;;;;;;8.73;8.02;;;3.80;58.60;;;;;;5184707;28;20057;-74
2021/01/25 12:39:04;;;;;;;8.95;8.25;;;3.90;58.10;;;;;;5196956;28;20041;-74
2021/01/25 12:41:37;;;;;;;8.38;7.68;;;3.90;57.60;;;;;;5190569;28;20095;-76
2021/01/25 12:44:08;;;;;;;8.60;7.80;;;3.80;56.80;;;;;;5190475;28;20041;-73
2021/01/25 12:46:40;;;;;;;8.43;7.68;;;3.80;56.60;;;;;;5186501;28;20041;-73
2021/01/25 12:49:13;;;;;;;8.50;7.80;;;3.50;56.70;;;;;;5196952;28;20037;-73
2021/01/25 12:51:46;;;;;;;10.20;9.20;;;3.30;57.00;;;;;;5194364;28;20041;-72
2021/01/25 12:54:17;;;;;;;9.43;8.63;;;3.40;58.30;;;;;;5195101;28;20872;-76
2021/01/25 12:56:49;;;;;;;8.80;8.10;;;3.50;58.00;;;;;;5192010;28;20045;-75
2021/01/25 12:59:20;;;;;;;8.80;8.10;;;3.70;55.60;;;;;;5193762;28;20145;-75
2021/01/25 13:01:52;;;;;;;8.57;7.88;;;3.60;55.20;;;;;;5192768;28;20053;-74
2021/01/25 13:04:23;;;;;;;8.48;7.78;;;3.60;56.10;;;;;;5194023;28;20053;-73
2021/01/25 13:06:55;;;;;;;8.25;7.55;;;3.60;56.10;;;;;;5193704;28;20045;-73
2021/01/25 13:09:26;;;;;;;8.68;7.97;;;3.50;54.80;;;;;;5194167;28;20089;-72
2021/01/25 13:11:58;;;;;;;8.35;7.65;;;3.40;56.30;;;;;;5183458;28;20045;-77
2021/01/25 13:14:29;;;;;;;8.23;7.50;;;3.30;58.20;;;;;;5176851;28;20049;-75
2021/01/25 13:17:01;;;;;;;8.68;7.97;;;3.20;55.90;;;;;;5195549;28;20140;-74
2021/01/25 13:19:33;;;;;;;8.50;7.80;;;3.10;56.20;;;;;;5183906;28;20042;-75